sensor_id;sensor_type;location;lat;lon;timestamp;P1;durP1;ratioP1;P2;durP2;ratioP2
76409;SDS011;65238;42.662;23.280;2023-03-14T05:12:23;33.78;;;13.77;;
76409;SDS011;65238;42.662;23.280;2023-03-14T05:14:49;30.60;;;14.45;;
76409;SDS011;65238;42.662;23.280;2023-03-14T05:17:14;35.72;;;14.30;;
76409;SDS011;65238;42.662;23.280;2023-03-14T05:19:43;36.10;;;15.30;;
76409;SDS011;65238;42.662;23.280;2023-03-14T05:22:08;38.33;;;15.05;;
76409;SDS011;65238;42.662;23.280;2023-03-14T05:24:34;38.15;;;17.27;;
76409;SDS011;65238;42.662;23.280;2023-03-14T05:26:59;31.38;;;15.00;;
76409;SDS011;65238;42.662;23.280;2023-03-14T05:29:25;43.30;;;15.70;;
76409;SDS011;65238;42.662;23.280;2023-03-14T05:31:50;39.47;;;17.00;;
76409;SDS011;65238;42.662;23.280;2023-03-14T05:34:15;30.25;;;15.20;;
76409;SDS011;65238;42.662;23.280;2023-03-14T05:36:41;35.10;;;15.38;;
76409;SDS011;65238;42.662;23.280;2023-03-14T05:39:06;27.80;;;13.98;;
76409;SDS011;65238;42.662;23.280;2023-03-14T05:41:32;32.03;;;14.82;;
76409;SDS011;65238;42.662;23.280;2023-03-14T05:43:57;30.35;;;14.80;;
76409;SDS011;65238;42.662;23.280;2023-03-14T05:46:22;25.90;;;13.55;;
76409;SDS011;65238;42.662;23.280;2023-03-14T05:48:48;27.60;;;14.65;;
76409;SDS011;65238;42.662;23.280;2023-03-14T05:51:13;30.15;;;15.07;;
76409;SDS011;65238;42.662;23.280;2023-03-14T05:53:39;27.40;;;14.90;;
76409;SDS011;65238;42.662;23.280;2023-03-14T05:56:04;35.08;;;17.23;;
76409;SDS011;65238;42.662;23.280;2023-03-14T05:58:30;32.28;;;16.73;;
76409;SDS011;65238;42.662;23.280;2023-03-14T06:00:55;33.92;;;17.00;;
76409;SDS011;65238;42.662;23.280;2023-03-14T06:03:21;31.17;;;16.20;;
76409;SDS011;65238;42.662;23.280;2023-03-14T06:05:49;29.63;;;15.23;;
76409;SDS011;65238;42.662;23.280;2023-03-14T06:08:15;25.55;;;13.40;;
76409;SDS011;65238;42.662;23.280;2023-03-14T06:10:40;31.45;;;14.85;;
76409;SDS011;65238;42.662;23.280;2023-03-14T06:13:06;24.05;;;14.13;;
76409;SDS011;65238;42.662;23.280;2023-03-14T06:15:31;24.30;;;12.90;;
76409;SDS011;65238;42.662;23.280;2023-03-14T06:17:57;20.85;;;13.05;;
76409;SDS011;65238;42.662;23.280;2023-03-14T06:20:23;27.55;;;14.55;;
76409;SDS011;65238;42.662;23.280;2023-03-14T06:22:48;30.05;;;13.35;;
76409;SDS011;65238;42.662;23.280;2023-03-14T06:25:14;30.77;;;14.35;;
76409;SDS011;65238;42.662;23.280;2023-03-14T06:27:39;28.88;;;15.73;;
76409;SDS011;65238;42.662;23.280;2023-03-14T06:30:05;35.88;;;16.20;;
76409;SDS011;65238;42.662;23.280;2023-03-14T06:32:31;30.15;;;15.73;;
76409;SDS011;65238;42.662;23.280;2023-03-14T06:34:57;30.52;;;15.55;;
76409;SDS011;65238;42.662;23.280;2023-03-14T06:37:25;31.17;;;15.50;;
76409;SDS011;65238;42.662;23.280;2023-03-14T06:39:52;30.27;;;14.75;;
76409;SDS011;65238;42.662;23.280;2023-03-14T06:42:18;26.77;;;15.45;;
76409;SDS011;65238;42.662;23.280;2023-03-14T06:44:43;36.28;;;17.15;;
76409;SDS011;65238;42.662;23.280;2023-03-14T06:47:09;29.88;;;17.08;;
76409;SDS011;65238;42.662;23.280;2023-03-14T06:49:34;31.77;;;18.15;;
76409;SDS011;65238;42.662;23.280;2023-03-14T06:51:59;27.25;;;14.98;;
76409;SDS011;65238;42.662;23.280;2023-03-14T06:54:25;27.98;;;15.23;;
76409;SDS011;65238;42.662;23.280;2023-03-14T06:56:50;28.25;;;14.85;;
76409;SDS011;65238;42.662;23.280;2023-03-14T06:59:16;25.05;;;13.57;;
76409;SDS011;65238;42.662;23.280;2023-03-14T07:01:41;23.75;;;12.85;;
76409;SDS011;65238;42.662;23.280;2023-03-14T07:04:21;25.42;;;12.60;;
76409;SDS011;65238;42.662;23.280;2023-03-14T07:10:00;24.50;;;12.40;;
76409;SDS011;65238;42.662;23.280;2023-03-14T07:12:31;24.73;;;11.88;;
76409;SDS011;65238;42.662;23.280;2023-03-14T07:15:09;22.95;;;12.88;;
76409;SDS011;65238;42.662;23.280;2023-03-14T07:18:16;30.95;;;12.40;;
76409;SDS011;65238;42.662;23.280;2023-03-14T07:24:15;26.23;;;13.15;;
76409;SDS011;65238;42.662;23.280;2023-03-14T07:26:43;26.50;;;14.52;;
76409;SDS011;65238;42.662;23.280;2023-03-14T07:29:19;26.45;;;15.50;;
76409;SDS011;65238;42.662;23.280;2023-03-14T07:32:11;24.88;;;14.02;;
76409;SDS011;65238;42.662;23.280;2023-03-14T07:45:21;19.50;;;10.70;;
76409;SDS011;65238;42.662;23.280;2023-03-14T07:48:13;23.20;;;12.25;;
76409;SDS011;65238;42.662;23.280;2023-03-14T07:57:03;17.48;;;9.43;;
76409;SDS011;65238;42.662;23.280;2023-03-14T08:02:54;16.40;;;9.57;;
76409;SDS011;65238;42.662;23.280;2023-03-14T08:05:19;16.73;;;9.82;;
76409;SDS011;65238;42.662;23.280;2023-03-14T08:07:45;20.08;;;10.38;;
76409;SDS011;65238;42.662;23.280;2023-03-14T08:10:10;19.00;;;9.52;;
76409;SDS011;65238;42.662;23.280;2023-03-14T08:12:38;13.73;;;9.50;;
76409;SDS011;65238;42.662;23.280;2023-03-14T08:15:03;20.55;;;9.60;;
76409;SDS011;65238;42.662;23.280;2023-03-14T08:17:29;16.95;;;9.52;;
76409;SDS011;65238;42.662;23.280;2023-03-14T08:19:54;17.90;;;10.05;;
76409;SDS011;65238;42.662;23.280;2023-03-14T08:22:20;19.40;;;10.55;;
76409;SDS011;65238;42.662;23.280;2023-03-14T08:24:45;15.98;;;9.70;;
76409;SDS011;65238;42.662;23.280;2023-03-14T08:27:11;17.30;;;10.15;;
76409;SDS011;65238;42.662;23.280;2023-03-14T08:29:36;13.95;;;9.98;;
76409;SDS011;65238;42.662;23.280;2023-03-14T08:32:01;19.45;;;11.15;;
76409;SDS011;65238;42.662;23.280;2023-03-14T08:34:27;21.70;;;11.20;;
76409;SDS011;65238;42.662;23.280;2023-03-14T08:36:53;21.80;;;11.85;;
76409;SDS011;65238;42.662;23.280;2023-03-14T08:39:21;20.50;;;12.68;;
76409;SDS011;65238;42.662;23.280;2023-03-14T08:41:49;22.88;;;11.68;;
76409;SDS011;65238;42.662;23.280;2023-03-14T08:44:14;22.52;;;12.07;;
76409;SDS011;65238;42.662;23.280;2023-03-14T08:46:40;21.58;;;11.70;;
76409;SDS011;65238;42.662;23.280;2023-03-14T08:49:05;25.17;;;12.75;;
76409;SDS011;65238;42.662;23.280;2023-03-14T08:51:40;21.98;;;12.52;;
76409;SDS011;65238;42.662;23.280;2023-03-14T08:54:15;24.05;;;12.38;;
76409;SDS011;65238;42.662;23.280;2023-03-14T08:57:02;21.20;;;13.55;;
76409;SDS011;65238;42.662;23.280;2023-03-14T08:59:31;27.00;;;12.55;;
76409;SDS011;65238;42.662;23.280;2023-03-14T09:01:59;21.38;;;13.00;;
76409;SDS011;65238;42.662;23.280;2023-03-14T09:06:53;19.55;;;10.95;;
76409;SDS011;65238;42.662;23.280;2023-03-14T09:09:19;17.60;;;11.18;;
76409;SDS011;65238;42.662;23.280;2023-03-14T09:11:47;19.60;;;11.70;;
76409;SDS011;65238;42.662;23.280;2023-03-14T09:14:13;23.88;;;11.70;;
76409;SDS011;65238;42.662;23.280;2023-03-14T09:16:38;21.15;;;10.88;;
76409;SDS011;65238;42.662;23.280;2023-03-14T09:19:04;23.58;;;12.23;;
76409;SDS011;65238;42.662;23.280;2023-03-14T09:21:30;22.55;;;11.93;;
76409;SDS011;65238;42.662;23.280;2023-03-14T09:23:59;19.17;;;11.75;;
76409;SDS011;65238;42.662;23.280;2023-03-14T09:26:39;24.00;;;13.25;;
76409;SDS011;65238;42.662;23.280;2023-03-14T09:29:22;19.98;;;10.10;;
76409;SDS011;65238;42.662;23.280;2023-03-14T09:31:48;17.42;;;9.98;;
76409;SDS011;65238;42.662;23.280;2023-03-14T09:34:13;17.67;;;9.85;;
76409;SDS011;65238;42.662;23.280;2023-03-14T09:36:39;21.30;;;10.35;;
76409;SDS011;65238;42.662;23.280;2023-03-14T09:39:05;18.30;;;10.90;;
76409;SDS011;65238;42.662;23.280;2023-03-14T09:41:35;22.40;;;11.80;;
76409;SDS011;65238;42.662;23.280;2023-03-14T09:46:30;17.98;;;11.20;;
76409;SDS011;65238;42.662;23.280;2023-03-14T09:48:57;16.17;;;9.63;;
76409;SDS011;65238;42.662;23.280;2023-03-14T09:51:23;17.70;;;9.90;;
76409;SDS011;65238;42.662;23.280;2023-03-14T09:53:49;17.88;;;9.50;;
76409;SDS011;65238;42.662;23.280;2023-03-14T09:56:20;17.75;;;8.43;;
76409;SDS011;65238;42.662;23.280;2023-03-14T09:59:05;14.40;;;9.30;;
76409;SDS011;65238;42.662;23.280;2023-03-14T10:01:36;21.50;;;9.38;;
76409;SDS011;65238;42.662;23.280;2023-03-14T10:04:06;17.15;;;9.70;;
76409;SDS011;65238;42.662;23.280;2023-03-14T10:06:37;16.30;;;9.43;;
76409;SDS011;65238;42.662;23.280;2023-03-14T10:09:02;18.70;;;10.10;;
76409;SDS011;65238;42.662;23.280;2023-03-14T10:11:28;17.23;;;8.93;;
76409;SDS011;65238;42.662;23.280;2023-03-14T10:16:28;14.13;;;8.68;;
76409;SDS011;65238;42.662;23.280;2023-03-14T10:18:58;19.00;;;8.70;;
76409;SDS011;65238;42.662;23.280;2023-03-14T10:21:27;17.80;;;8.73;;
76409;SDS011;65238;42.662;23.280;2023-03-14T10:24:22;15.55;;;8.32;;
76409;SDS011;65238;42.662;23.280;2023-03-14T10:26:53;17.13;;;8.25;;
76409;SDS011;65238;42.662;23.280;2023-03-14T10:29:19;17.48;;;9.00;;
76409;SDS011;65238;42.662;23.280;2023-03-14T10:31:47;17.38;;;8.30;;
76409;SDS011;65238;42.662;23.280;2023-03-14T10:34:21;20.63;;;8.55;;
76409;SDS011;65238;42.662;23.280;2023-03-14T10:36:52;23.98;;;9.18;;
76409;SDS011;65238;42.662;23.280;2023-03-14T10:41:52;24.95;;;9.57;;
76409;SDS011;65238;42.662;23.280;2023-03-14T10:44:20;16.42;;;8.93;;
76409;SDS011;65238;42.662;23.280;2023-03-14T10:46:54;20.85;;;9.00;;
76409;SDS011;65238;42.662;23.280;2023-03-14T10:49:23;13.93;;;8.73;;
76409;SDS011;65238;42.662;23.280;2023-03-14T10:51:52;27.27;;;10.97;;
76409;SDS011;65238;42.662;23.280;2023-03-14T10:54:22;18.95;;;9.60;;
76409;SDS011;65238;42.662;23.280;2023-03-14T10:57:01;19.60;;;10.18;;
76409;SDS011;65238;42.662;23.280;2023-03-14T10:59:59;17.80;;;9.60;;
76409;SDS011;65238;42.662;23.280;2023-03-14T11:03:15;17.38;;;9.25;;
76409;SDS011;65238;42.662;23.280;2023-03-14T11:25:38;10.23;;;6.40;;
76409;SDS011;65238;42.662;23.280;2023-03-14T11:50:43;9.93;;;5.40;;
76409;SDS011;65238;42.662;23.280;2023-03-14T12:20:19;7.88;;;3.83;;
76409;SDS011;65238;42.662;23.280;2023-03-14T12:51:15;7.68;;;3.33;;
76409;SDS011;65238;42.662;23.280;2023-03-14T12:56:27;6.05;;;3.00;;
76409;SDS011;65238;42.662;23.280;2023-03-14T12:59:14;7.00;;;4.10;;
76409;SDS011;65238;42.662;23.280;2023-03-14T13:04:50;6.47;;;3.15;;
76409;SDS011;65238;42.662;23.280;2023-03-14T13:07:35;6.50;;;3.47;;
76409;SDS011;65238;42.662;23.280;2023-03-14T13:10:23;6.75;;;2.83;;
76409;SDS011;65238;42.662;23.280;2023-03-14T13:13:04;4.30;;;2.45;;
76409;SDS011;65238;42.662;23.280;2023-03-14T13:15:40;7.47;;;2.88;;
76409;SDS011;65238;42.662;23.280;2023-03-14T13:20:44;6.85;;;2.67;;
76409;SDS011;65238;42.662;23.280;2023-03-14T13:23:30;7.53;;;2.75;;
76409;SDS011;65238;42.662;23.280;2023-03-14T13:25:58;5.28;;;2.88;;
76409;SDS011;65238;42.662;23.280;2023-03-14T13:28:24;5.88;;;3.08;;
76409;SDS011;65238;42.662;23.280;2023-03-14T13:30:57;4.38;;;2.55;;
76409;SDS011;65238;42.662;23.280;2023-03-14T13:33:24;6.68;;;2.70;;
76409;SDS011;65238;42.662;23.280;2023-03-14T13:35:54;7.10;;;2.95;;
76409;SDS011;65238;42.662;23.280;2023-03-14T13:38:24;6.47;;;2.38;;
76409;SDS011;65238;42.662;23.280;2023-03-14T13:40:52;6.35;;;2.60;;
76409;SDS011;65238;42.662;23.280;2023-03-14T13:43:25;5.10;;;2.75;;
76409;SDS011;65238;42.662;23.280;2023-03-14T13:45:54;6.50;;;2.40;;
76409;SDS011;65238;42.662;23.280;2023-03-14T13:48:22;5.15;;;2.38;;
76409;SDS011;65238;42.662;23.280;2023-03-14T13:51:06;3.97;;;2.45;;
76409;SDS011;65238;42.662;23.280;2023-03-14T13:53:45;7.55;;;2.40;;
76409;SDS011;65238;42.662;23.280;2023-03-14T13:56:11;3.38;;;2.08;;
76409;SDS011;65238;42.662;23.280;2023-03-14T13:58:37;4.88;;;2.92;;
76409;SDS011;65238;42.662;23.280;2023-03-14T14:03:49;3.50;;;2.10;;
76409;SDS011;65238;42.662;23.280;2023-03-14T14:06:29;6.20;;;2.30;;
76409;SDS011;65238;42.662;23.280;2023-03-14T14:08:57;3.50;;;2.50;;
76409;SDS011;65238;42.662;23.280;2023-03-14T14:14:14;4.47;;;1.95;;
76409;SDS011;65238;42.662;23.280;2023-03-14T14:16:43;4.72;;;2.15;;
76409;SDS011;65238;42.662;23.280;2023-03-14T14:19:09;8.13;;;2.42;;
76409;SDS011;65238;42.662;23.280;2023-03-14T14:21:35;4.55;;;2.20;;
76409;SDS011;65238;42.662;23.280;2023-03-14T14:24:01;4.05;;;2.20;;
76409;SDS011;65238;42.662;23.280;2023-03-14T14:26:26;4.97;;;2.05;;
76409;SDS011;65238;42.662;23.280;2023-03-14T14:28:59;4.78;;;2.05;;
76409;SDS011;65238;42.662;23.280;2023-03-14T14:31:25;3.97;;;1.83;;
76409;SDS011;65238;42.662;23.280;2023-03-14T14:41:28;5.18;;;1.70;;
76409;SDS011;65238;42.662;23.280;2023-03-14T14:43:55;3.92;;;2.10;;
76409;SDS011;65238;42.662;23.280;2023-03-14T14:46:21;5.00;;;1.95;;
76409;SDS011;65238;42.662;23.280;2023-03-14T14:48:46;3.67;;;2.25;;
76409;SDS011;65238;42.662;23.280;2023-03-14T14:51:22;8.07;;;2.00;;
76409;SDS011;65238;42.662;23.280;2023-03-14T14:57:02;2.95;;;1.95;;
76409;SDS011;65238;42.662;23.280;2023-03-14T14:59:29;2.85;;;1.80;;
76409;SDS011;65238;42.662;23.280;2023-03-14T15:01:56;3.08;;;2.08;;
76409;SDS011;65238;42.662;23.280;2023-03-14T15:04:22;3.63;;;2.10;;
76409;SDS011;65238;42.662;23.280;2023-03-14T15:06:48;5.57;;;1.98;;
76409;SDS011;65238;42.662;23.280;2023-03-14T15:09:17;2.53;;;1.88;;
76409;SDS011;65238;42.662;23.280;2023-03-14T15:11:44;4.40;;;1.92;;
76409;SDS011;65238;42.662;23.280;2023-03-14T15:14:10;4.68;;;2.10;;
76409;SDS011;65238;42.662;23.280;2023-03-14T15:16:36;5.20;;;2.05;;
76409;SDS011;65238;42.662;23.280;2023-03-14T15:19:02;3.65;;;1.73;;
76409;SDS011;65238;42.662;23.280;2023-03-14T15:21:35;3.25;;;1.80;;
76409;SDS011;65238;42.662;23.280;2023-03-14T15:24:00;3.67;;;1.63;;
76409;SDS011;65238;42.662;23.280;2023-03-14T15:26:26;7.50;;;2.08;;
76409;SDS011;65238;42.662;23.280;2023-03-14T15:28:52;4.78;;;2.08;;
76409;SDS011;65238;42.662;23.280;2023-03-14T15:31:18;3.45;;;1.77;;
76409;SDS011;65238;42.662;23.280;2023-03-14T15:33:44;4.55;;;1.95;;
76409;SDS011;65238;42.662;23.280;2023-03-14T15:38:47;5.68;;;2.03;;
76409;SDS011;65238;42.662;23.280;2023-03-14T15:41:13;8.05;;;2.53;;
76409;SDS011;65238;42.662;23.280;2023-03-14T15:43:40;10.70;;;2.17;;
76409;SDS011;65238;42.662;23.280;2023-03-14T15:46:07;4.07;;;1.92;;
76409;SDS011;65238;42.662;23.280;2023-03-14T15:48:33;8.60;;;2.20;;
76409;SDS011;65238;42.662;23.280;2023-03-14T15:50:59;8.82;;;2.42;;
76409;SDS011;65238;42.662;23.280;2023-03-14T15:53:24;6.05;;;2.47;;
76409;SDS011;65238;42.662;23.280;2023-03-14T15:55:50;9.20;;;2.30;;
76409;SDS011;65238;42.662;23.280;2023-03-14T15:58:17;8.20;;;2.35;;
76409;SDS011;65238;42.662;23.280;2023-03-14T16:00:43;4.97;;;2.50;;
76409;SDS011;65238;42.662;23.280;2023-03-14T16:03:12;6.32;;;2.25;;
76409;SDS011;65238;42.662;23.280;2023-03-14T16:05:38;4.55;;;2.20;;
76409;SDS011;65238;42.662;23.280;2023-03-14T16:08:04;7.57;;;2.45;;
76409;SDS011;65238;42.662;23.280;2023-03-14T16:13:19;5.57;;;2.67;;
76409;SDS011;65238;42.662;23.280;2023-03-14T16:16:40;5.78;;;2.78;;
76409;SDS011;65238;42.662;23.280;2023-03-14T16:28:28;7.72;;;2.97;;
76409;SDS011;65238;42.662;23.280;2023-03-14T16:30:59;7.00;;;2.83;;
76409;SDS011;65238;42.662;23.280;2023-03-14T16:33:28;9.65;;;4.32;;
76409;SDS011;65238;42.662;23.280;2023-03-14T16:35:55;6.07;;;2.60;;
76409;SDS011;65238;42.662;23.280;2023-03-14T16:38:30;6.43;;;3.17;;
76409;SDS011;65238;42.662;23.280;2023-03-14T16:41:06;5.38;;;2.50;;
76409;SDS011;65238;42.662;23.280;2023-03-14T16:43:45;7.63;;;3.78;;
76409;SDS011;65238;42.662;23.280;2023-03-14T16:46:23;8.88;;;3.88;;
76409;SDS011;65238;42.662;23.280;2023-03-14T16:49:07;6.57;;;3.22;;
76409;SDS011;65238;42.662;23.280;2023-03-14T16:55:07;5.85;;;3.53;;
76409;SDS011;65238;42.662;23.280;2023-03-14T16:57:35;5.72;;;3.20;;
76409;SDS011;65238;42.662;23.280;2023-03-14T17:00:08;8.52;;;3.60;;
76409;SDS011;65238;42.662;23.280;2023-03-14T17:02:39;5.40;;;3.38;;
76409;SDS011;65238;42.662;23.280;2023-03-14T17:05:46;9.32;;;4.18;;
76409;SDS011;65238;42.662;23.280;2023-03-14T17:08:13;6.95;;;3.35;;
76409;SDS011;65238;42.662;23.280;2023-03-14T17:10:38;7.97;;;3.47;;
76409;SDS011;65238;42.662;23.280;2023-03-14T17:13:04;8.30;;;4.18;;
76409;SDS011;65238;42.662;23.280;2023-03-14T17:15:29;9.05;;;4.60;;
76409;SDS011;65238;42.662;23.280;2023-03-14T17:17:55;9.82;;;3.63;;
76409;SDS011;65238;42.662;23.280;2023-03-14T17:20:20;6.80;;;3.40;;
76409;SDS011;65238;42.662;23.280;2023-03-14T17:22:45;5.47;;;3.10;;
76409;SDS011;65238;42.662;23.280;2023-03-14T17:25:11;8.23;;;3.75;;
76409;SDS011;65238;42.662;23.280;2023-03-14T17:27:36;9.02;;;4.22;;
76409;SDS011;65238;42.662;23.280;2023-03-14T17:30:02;8.52;;;3.35;;
76409;SDS011;65238;42.662;23.280;2023-03-14T17:32:29;10.43;;;3.97;;
76409;SDS011;65238;42.662;23.280;2023-03-14T17:34:54;7.70;;;4.18;;
76409;SDS011;65238;42.662;23.280;2023-03-14T17:37:20;11.38;;;4.07;;
76409;SDS011;65238;42.662;23.280;2023-03-14T17:39:45;8.63;;;4.20;;
76409;SDS011;65238;42.662;23.280;2023-03-14T17:42:11;11.27;;;5.53;;
76409;SDS011;65238;42.662;23.280;2023-03-14T17:44:36;10.98;;;5.03;;
76409;SDS011;65238;42.662;23.280;2023-03-14T17:47:02;14.75;;;6.15;;
76409;SDS011;65238;42.662;23.280;2023-03-14T17:49:27;9.77;;;4.22;;
76409;SDS011;65238;42.662;23.280;2023-03-14T17:51:53;10.43;;;3.80;;
76409;SDS011;65238;42.662;23.280;2023-03-14T17:54:18;7.85;;;4.00;;
76409;SDS011;65238;42.662;23.280;2023-03-14T17:56:44;14.93;;;6.13;;
76409;SDS011;65238;42.662;23.280;2023-03-14T17:59:10;7.43;;;3.80;;
76409;SDS011;65238;42.662;23.280;2023-03-14T18:01:35;11.57;;;4.10;;
76409;SDS011;65238;42.662;23.280;2023-03-14T18:04:01;8.25;;;4.03;;
76409;SDS011;65238;42.662;23.280;2023-03-14T18:06:27;12.93;;;5.35;;
76409;SDS011;65238;42.662;23.280;2023-03-14T18:08:54;11.88;;;5.05;;
76409;SDS011;65238;42.662;23.280;2023-03-14T18:11:20;13.00;;;5.55;;
76409;SDS011;65238;42.662;23.280;2023-03-14T18:13:47;12.45;;;5.53;;
76409;SDS011;65238;42.662;23.280;2023-03-14T18:16:13;12.18;;;5.25;;
76409;SDS011;65238;42.662;23.280;2023-03-14T18:18:39;17.10;;;5.90;;
76409;SDS011;65238;42.662;23.280;2023-03-14T18:21:05;12.77;;;5.90;;
76409;SDS011;65238;42.662;23.280;2023-03-14T18:23:32;16.92;;;6.13;;
76409;SDS011;65238;42.662;23.280;2023-03-14T18:25:58;11.95;;;6.05;;
76409;SDS011;65238;42.662;23.280;2023-03-14T18:28:24;12.35;;;4.75;;
76409;SDS011;65238;42.662;23.280;2023-03-14T18:30:49;12.02;;;5.15;;
76409;SDS011;65238;42.662;23.280;2023-03-14T18:33:20;13.25;;;5.05;;
76409;SDS011;65238;42.662;23.280;2023-03-14T18:35:46;11.70;;;4.95;;
76409;SDS011;65238;42.662;23.280;2023-03-14T18:38:13;12.85;;;7.25;;
76409;SDS011;65238;42.662;23.280;2023-03-14T18:40:38;12.85;;;6.35;;
76409;SDS011;65238;42.662;23.280;2023-03-14T18:43:04;9.82;;;5.18;;
76409;SDS011;65238;42.662;23.280;2023-03-14T18:45:30;16.73;;;5.25;;
76409;SDS011;65238;42.662;23.280;2023-03-14T18:47:55;12.98;;;5.22;;
76409;SDS011;65238;42.662;23.280;2023-03-14T18:50:22;17.55;;;6.45;;
76409;SDS011;65238;42.662;23.280;2023-03-14T18:52:47;10.93;;;4.72;;
76409;SDS011;65238;42.662;23.280;2023-03-14T18:55:12;9.02;;;5.18;;
76409;SDS011;65238;42.662;23.280;2023-03-14T18:57:38;22.77;;;10.27;;
76409;SDS011;65238;42.662;23.280;2023-03-14T19:00:04;12.32;;;5.05;;
76409;SDS011;65238;42.662;23.280;2023-03-14T19:02:31;6.45;;;3.95;;
76409;SDS011;65238;42.662;23.280;2023-03-14T19:04:56;9.15;;;3.60;;
76409;SDS011;65238;42.662;23.280;2023-03-14T19:07:22;8.45;;;3.20;;
76409;SDS011;65238;42.662;23.280;2023-03-14T19:09:48;7.68;;;3.10;;
76409;SDS011;65238;42.662;23.280;2023-03-14T19:12:14;5.28;;;3.25;;
76409;SDS011;65238;42.662;23.280;2023-03-14T19:14:40;7.07;;;3.25;;
76409;SDS011;65238;42.662;23.280;2023-03-14T19:17:06;6.60;;;3.15;;
76409;SDS011;65238;42.662;23.280;2023-03-14T19:19:31;5.25;;;3.17;;
76409;SDS011;65238;42.662;23.280;2023-03-14T19:21:57;11.57;;;4.15;;
76409;SDS011;65238;42.662;23.280;2023-03-14T19:24:23;10.23;;;3.85;;
76409;SDS011;65238;42.662;23.280;2023-03-14T19:26:49;8.93;;;3.85;;
76409;SDS011;65238;42.662;23.280;2023-03-14T19:29:14;12.70;;;6.60;;
76409;SDS011;65238;42.662;23.280;2023-03-14T19:31:40;11.02;;;4.07;;
76409;SDS011;65238;42.662;23.280;2023-03-14T19:34:09;8.25;;;4.25;;
76409;SDS011;65238;42.662;23.280;2023-03-14T19:36:35;10.40;;;5.10;;
76409;SDS011;65238;42.662;23.280;2023-03-14T19:39:03;8.40;;;4.55;;
76409;SDS011;65238;42.662;23.280;2023-03-14T19:41:30;11.10;;;4.85;;
76409;SDS011;65238;42.662;23.280;2023-03-14T19:43:56;6.95;;;4.50;;
76409;SDS011;65238;42.662;23.280;2023-03-14T19:46:22;9.13;;;4.65;;
76409;SDS011;65238;42.662;23.280;2023-03-14T19:48:47;11.18;;;4.82;;
76409;SDS011;65238;42.662;23.280;2023-03-14T19:51:14;9.15;;;5.10;;
76409;SDS011;65238;42.662;23.280;2023-03-14T19:53:41;9.55;;;5.10;;
76409;SDS011;65238;42.662;23.280;2023-03-14T19:56:07;28.02;;;13.63;;
76409;SDS011;65238;42.662;23.280;2023-03-14T19:58:33;22.77;;;9.85;;
76409;SDS011;65238;42.662;23.280;2023-03-14T20:00:59;24.95;;;11.77;;
76409;SDS011;65238;42.662;23.280;2023-03-14T20:03:24;36.63;;;14.80;;
76409;SDS011;65238;42.662;23.280;2023-03-14T20:05:50;37.33;;;16.50;;
76409;SDS011;65238;42.662;23.280;2023-03-14T20:08:17;25.33;;;11.85;;
76409;SDS011;65238;42.662;23.280;2023-03-14T20:10:44;29.38;;;13.40;;
76409;SDS011;65238;42.662;23.280;2023-03-14T20:13:09;33.13;;;14.57;;
76409;SDS011;65238;42.662;23.280;2023-03-14T20:15:35;42.40;;;18.33;;
76409;SDS011;65238;42.662;23.280;2023-03-14T20:18:00;45.10;;;19.05;;
76409;SDS011;65238;42.662;23.280;2023-03-14T20:20:26;37.85;;;16.67;;
76409;SDS011;65238;42.662;23.280;2023-03-14T20:22:51;43.05;;;19.13;;
76409;SDS011;65238;42.662;23.280;2023-03-14T20:25:17;50.67;;;21.20;;
76409;SDS011;65238;42.662;23.280;2023-03-14T20:27:43;33.35;;;15.43;;
76409;SDS011;65238;42.662;23.280;2023-03-14T20:30:12;30.02;;;15.30;;
76409;SDS011;65238;42.662;23.280;2023-03-14T20:32:39;18.33;;;8.27;;
76409;SDS011;65238;42.662;23.280;2023-03-14T20:35:06;11.13;;;6.68;;
76409;SDS011;65238;42.662;23.280;2023-03-14T20:37:33;15.13;;;7.32;;
76409;SDS011;65238;42.662;23.280;2023-03-14T20:40:05;19.25;;;9.65;;
76409;SDS011;65238;42.662;23.280;2023-03-14T20:42:37;21.13;;;9.18;;
76409;SDS011;65238;42.662;23.280;2023-03-14T20:45:03;19.13;;;9.75;;
76409;SDS011;65238;42.662;23.280;2023-03-14T20:47:29;16.42;;;8.45;;
76409;SDS011;65238;42.662;23.280;2023-03-14T20:49:55;19.13;;;9.85;;
76409;SDS011;65238;42.662;23.280;2023-03-14T20:52:21;18.13;;;9.32;;
76409;SDS011;65238;42.662;23.280;2023-03-14T20:54:46;22.05;;;10.40;;
76409;SDS011;65238;42.662;23.280;2023-03-14T20:57:11;25.40;;;12.88;;
76409;SDS011;65238;42.662;23.280;2023-03-14T20:59:39;32.25;;;13.75;;
76409;SDS011;65238;42.662;23.280;2023-03-14T21:02:04;35.00;;;14.63;;
76409;SDS011;65238;42.662;23.280;2023-03-14T21:04:30;32.75;;;15.60;;
76409;SDS011;65238;42.662;23.280;2023-03-14T21:06:55;33.72;;;15.45;;
76409;SDS011;65238;42.662;23.280;2023-03-14T21:09:24;35.92;;;16.70;;
76409;SDS011;65238;42.662;23.280;2023-03-14T21:11:50;39.70;;;18.80;;
76409;SDS011;65238;42.662;23.280;2023-03-14T21:14:16;34.22;;;17.95;;
76409;SDS011;65238;42.662;23.280;2023-03-14T21:16:43;38.45;;;16.98;;
76409;SDS011;65238;42.662;23.280;2023-03-14T21:19:08;37.85;;;17.40;;
76409;SDS011;65238;42.662;23.280;2023-03-14T21:21:35;35.00;;;16.83;;
76409;SDS011;65238;42.662;23.280;2023-03-14T21:24:00;38.05;;;17.33;;
76409;SDS011;65238;42.662;23.280;2023-03-14T21:26:26;33.33;;;15.90;;
76409;SDS011;65238;42.662;23.280;2023-03-14T21:28:52;31.90;;;15.45;;
76409;SDS011;65238;42.662;23.280;2023-03-14T21:31:17;30.00;;;14.10;;
76409;SDS011;65238;42.662;23.280;2023-03-14T21:33:43;28.80;;;14.88;;
76409;SDS011;65238;42.662;23.280;2023-03-14T21:36:08;29.67;;;13.68;;
76409;SDS011;65238;42.662;23.280;2023-03-14T21:38:33;30.35;;;13.20;;
76409;SDS011;65238;42.662;23.280;2023-03-14T21:40:59;29.83;;;12.52;;
76409;SDS011;65238;42.662;23.280;2023-03-14T21:43:25;21.02;;;11.32;;
76409;SDS011;65238;42.662;23.280;2023-03-14T21:45:52;24.83;;;11.23;;
76409;SDS011;65238;42.662;23.280;2023-03-14T21:48:18;21.63;;;11.68;;
76409;SDS011;65238;42.662;23.280;2023-03-14T21:50:45;23.92;;;12.48;;
76409;SDS011;65238;42.662;23.280;2023-03-14T21:53:10;27.70;;;12.98;;
76409;SDS011;65238;42.662;23.280;2023-03-14T21:55:39;29.75;;;13.10;;
76409;SDS011;65238;42.662;23.280;2023-03-14T21:58:08;24.92;;;12.30;;
76409;SDS011;65238;42.662;23.280;2023-03-14T22:00:38;26.10;;;12.07;;
76409;SDS011;65238;42.662;23.280;2023-03-14T22:03:12;22.95;;;12.23;;
76409;SDS011;65238;42.662;23.280;2023-03-14T22:05:42;20.83;;;10.38;;
76409;SDS011;65238;42.662;23.280;2023-03-14T22:08:09;23.65;;;11.05;;
76409;SDS011;65238;42.662;23.280;2023-03-14T22:10:35;18.95;;;11.07;;
76409;SDS011;65238;42.662;23.280;2023-03-14T22:13:00;23.33;;;11.27;;
76409;SDS011;65238;42.662;23.280;2023-03-14T22:15:28;21.55;;;11.13;;
76409;SDS011;65238;42.662;23.280;2023-03-14T22:17:54;22.85;;;11.52;;
76409;SDS011;65238;42.662;23.280;2023-03-14T22:20:19;21.73;;;10.80;;
76409;SDS011;65238;42.662;23.280;2023-03-14T22:22:45;20.88;;;10.52;;
76409;SDS011;65238;42.662;23.280;2023-03-14T22:25:10;24.63;;;11.40;;
76409;SDS011;65238;42.662;23.280;2023-03-14T22:27:35;26.45;;;11.43;;
76409;SDS011;65238;42.662;23.280;2023-03-14T22:30:01;25.95;;;11.27;;
76409;SDS011;65238;42.662;23.280;2023-03-14T22:32:27;22.67;;;11.50;;
76409;SDS011;65238;42.662;23.280;2023-03-14T22:34:52;23.40;;;12.07;;
76409;SDS011;65238;42.662;23.280;2023-03-14T22:37:18;23.30;;;11.35;;